createdAt,value
2015-12-28T00:00:41.879Z,1019.4
2015-12-28T00:01:41.464Z,1019.4
2015-12-28T00:02:41.608Z,1019.3
2015-12-28T00:03:40.751Z,1019.3
2015-12-28T00:04:41.457Z,1019.3
2015-12-28T00:05:41.413Z,1019.4
2015-12-28T00:06:41.353Z,1019.4
2015-12-28T00:07:41.325Z,1019.4
2015-12-28T00:08:41.249Z,1019.3
2015-12-28T00:09:41.189Z,1019.4
2015-12-28T00:10:41.146Z,1019.5
2015-12-28T00:11:41.101Z,1019.3
2015-12-28T00:12:41.042Z,1019.4
2015-12-28T00:13:40.982Z,1019.4
2015-12-28T00:14:40.938Z,1019.5
2015-12-28T00:15:40.894Z,1019.5
2015-12-28T00:16:40.849Z,1019.6
2015-12-28T00:17:40.774Z,1019.5
2015-12-28T00:18:40.713Z,1019.6
2015-12-28T00:19:39.952Z,1019.5
2015-12-28T00:20:40.829Z,1019.5
2015-12-28T00:21:40.785Z,1019.5
2015-12-28T00:22:40.738Z,1019.5
2015-12-28T00:23:40.459Z,1019.5
2015-12-28T00:24:40.415Z,1019.6
2015-12-28T00:25:40.371Z,1019.5
2015-12-28T00:26:40.296Z,1019.6
2015-12-28T00:27:40.251Z,1019.4
2015-12-28T00:28:40.207Z,1019.6
2015-12-28T00:29:40.398Z,1019.5
2015-12-28T00:30:40.088Z,1019.5
2015-12-28T00:31:39.888Z,1019.4
2015-12-28T00:32:40.000Z,1019.5
2015-12-28T00:33:40.143Z,1019.6
2015-12-28T00:34:39.879Z,1019.5
2015-12-28T00:35:40.054Z,1019.5
2015-12-28T00:36:39.776Z,1019.4
2015-12-28T00:37:39.748Z,1019.6
2015-12-28T00:38:39.673Z,1019.5
2015-12-28T00:39:39.629Z,1019.3
2015-12-28T00:40:39.569Z,1019.5
2015-12-28T00:41:39.524Z,1019.5
2015-12-28T00:42:39.449Z,1019.5
2015-12-28T00:43:39.404Z,1019.5
2015-12-28T00:44:39.548Z,1019.4
2015-12-28T00:45:39.317Z,1019.4
2015-12-28T00:46:39.256Z,1019.6
2015-12-28T00:47:39.197Z,1019.5
2015-12-28T00:48:39.138Z,1019.5
2015-12-28T00:49:39.328Z,1019.6
2015-12-28T00:50:39.049Z,1019.4
2015-12-28T00:51:39.006Z,1019.4
2015-12-28T00:52:38.929Z,1019.5
2015-12-28T00:53:38.886Z,1019.5
2015-12-28T00:54:38.842Z,1019.5
2015-12-28T00:55:38.782Z,1019.4
2015-12-28T00:56:38.723Z,1019.4
2015-12-28T00:57:38.662Z,1019.6
2015-12-28T00:58:38.820Z,1019.5
2015-12-28T00:59:38.808Z,1019.4
2015-12-28T01:00:38.514Z,1019.4
2015-12-28T01:01:38.704Z,1019.5
2015-12-28T01:02:38.411Z,1019.5
2015-12-28T01:03:38.350Z,1019.5
2015-12-28T01:04:38.306Z,1019.6
2015-12-28T01:05:38.262Z,1019.6
2015-12-28T01:06:38.202Z,1019.6
2015-12-28T01:07:38.139Z,1019.6
2015-12-28T01:08:38.095Z,1019.6
2015-12-28T01:09:38.052Z,1019.6
2015-12-28T01:10:37.991Z,1019.6
2015-12-28T01:11:37.933Z,1019.5
2015-12-28T01:12:37.872Z,1019.5
2015-12-28T01:13:37.828Z,1019.6
2015-12-28T01:14:37.800Z,1019.5
2015-12-28T01:15:37.739Z,1019.6
2015-12-28T01:16:37.914Z,1019.5
2015-12-28T01:17:37.621Z,1019.7
2015-12-28T01:18:37.764Z,1019.7
2015-12-28T01:19:37.532Z,1019.7
2015-12-28T01:20:37.473Z,1019.8
2015-12-28T01:21:37.617Z,1019.7
2015-12-28T01:22:37.369Z,1019.6
2015-12-28T01:23:37.309Z,1019.8
2015-12-28T01:24:37.265Z,1019.6
2015-12-28T01:25:37.206Z,1019.7
2015-12-28T01:26:37.145Z,1019.5
2015-12-28T01:27:37.102Z,1019.7
2015-12-28T01:28:37.042Z,1019.8
2015-12-28T01:29:36.998Z,1019.7
2015-12-28T01:30:36.939Z,1019.7
2015-12-28T01:31:36.909Z,1019.6
2015-12-28T01:32:36.084Z,1019.7
2015-12-28T01:33:36.790Z,1019.7
2015-12-28T01:34:36.730Z,1019.7
2015-12-28T01:35:36.671Z,1019.6
2015-12-28T01:36:36.627Z,1019.7
2015-12-28T01:37:36.583Z,1019.6
2015-12-28T01:38:36.523Z,1019.8
2015-12-28T01:39:36.479Z,1019.8
2015-12-28T01:40:36.621Z,1019.8
2015-12-28T01:41:36.358Z,1019.8
2015-12-28T01:42:36.299Z,1019.7
2015-12-28T01:43:36.271Z,1019.8
2015-12-28T01:44:36.211Z,1019.8
2015-12-28T01:45:36.149Z,1019.8
2015-12-28T01:46:36.089Z,1019.8
2015-12-28T01:47:36.029Z,1019.8
2015-12-28T01:48:35.985Z,1019.9
2015-12-28T01:49:35.940Z,1019.8
2015-12-28T01:50:35.880Z,1019.8
2015-12-28T01:51:35.680Z,1019.8
2015-12-28T01:52:35.980Z,1019.8
2015-12-28T01:53:34.983Z,1019.9
2015-12-28T01:54:35.673Z,1019.9
2015-12-28T01:55:35.613Z,1019.9
2015-12-28T01:56:35.569Z,1019.9
2015-12-28T01:57:35.510Z,1019.9
2015-12-28T01:58:35.450Z,1020
2015-12-28T01:59:35.422Z,1019.8
2015-12-28T02:00:35.549Z,1020
2015-12-28T02:01:35.739Z,1019.9
2015-12-28T02:02:35.242Z,1020
2015-12-28T02:03:35.229Z,1020
2015-12-28T02:04:35.154Z,1020
2015-12-28T02:05:35.094Z,1020
2015-12-28T02:06:35.050Z,1019.9
2015-12-28T02:07:34.990Z,1019.9
2015-12-28T02:08:34.946Z,1019.8
2015-12-28T02:09:34.902Z,1020
2015-12-28T02:10:34.843Z,1020
2015-12-28T02:11:34.799Z,1019.9
2015-12-28T02:12:34.739Z,1019.9
2015-12-28T02:13:34.663Z,1019.9
2015-12-28T02:14:34.619Z,1020
2015-12-28T02:15:34.560Z,1019.9
2015-12-28T02:16:34.515Z,1019.9
2015-12-28T02:17:34.471Z,1020
2015-12-28T02:18:34.396Z,1020
2015-12-28T02:19:34.352Z,1020
2015-12-28T02:20:34.291Z,1020
2015-12-28T02:21:34.248Z,1020
2015-12-28T02:22:34.204Z,1020.1
2015-12-28T02:23:34.378Z,1020.1
2015-12-28T02:24:34.065Z,1020
2015-12-28T02:25:34.021Z,1020.1
2015-12-28T02:26:33.977Z,1020.1
2015-12-28T02:27:33.949Z,1020.1
2015-12-28T02:28:33.857Z,1020.1
2015-12-28T02:29:33.813Z,1020.2
2015-12-28T02:30:33.759Z,1020.2
2015-12-28T02:31:33.714Z,1020.1
2015-12-28T02:32:33.670Z,1020.3
2015-12-28T02:33:33.829Z,1020.2
2015-12-28T02:34:33.739Z,1020.2
2015-12-28T02:35:33.695Z,1020.1
2015-12-28T02:36:33.447Z,1020.2
2015-12-28T02:37:32.653Z,1020.2
2015-12-28T02:38:36.390Z,1020.1
2015-12-28T02:39:33.299Z,1020.2
2015-12-28T02:40:33.239Z,1020.2
2015-12-28T02:41:33.196Z,1020.1
2015-12-28T02:42:33.136Z,1020.1
2015-12-28T02:43:33.076Z,1020.2
2015-12-28T02:44:33.032Z,1020.2
2015-12-28T02:45:33.206Z,1020.2
2015-12-28T02:46:32.928Z,1020.2
2015-12-28T02:47:32.884Z,1020.2
2015-12-28T02:48:32.808Z,1020.3
2015-12-28T02:49:32.765Z,1020.2
2015-12-28T02:50:32.939Z,1020.2
2015-12-28T02:51:32.661Z,1020.3
2015-12-28T02:52:32.632Z,1020.3
2015-12-28T02:53:32.557Z,1020.2
2015-12-28T02:54:32.497Z,1020.3
2015-12-28T02:55:32.686Z,1020.3
2015-12-28T02:56:32.409Z,1020.3
2015-12-28T02:57:32.364Z,1020.5
2015-12-28T02:58:32.277Z,1020.3
2015-12-28T02:59:32.216Z,1020.4
2015-12-28T03:00:32.141Z,1020.5
2015-12-28T03:01:32.095Z,1020.3
2015-12-28T03:02:32.034Z,1020.4
2015-12-28T03:03:31.941Z,1020.3
2015-12-28T03:04:31.889Z,1020.4
2015-12-28T03:05:31.823Z,1020.4
2015-12-28T03:06:31.992Z,1020.5
2015-12-28T03:07:31.724Z,1020.4
2015-12-28T03:08:31.876Z,1020.4
2015-12-28T03:09:30.846Z,1020.4
2015-12-28T03:10:31.550Z,1020.4
2015-12-28T03:11:31.504Z,1020.5
2015-12-28T03:12:31.441Z,1020.4
2015-12-28T03:13:31.381Z,1020.4
2015-12-28T03:14:31.555Z,1020.3
2015-12-28T03:15:31.275Z,1020.3
2015-12-28T03:16:31.246Z,1020.3
2015-12-28T03:17:31.185Z,1020.5
2015-12-28T03:18:31.109Z,1020.5
2015-12-28T03:19:31.065Z,1020.5
2015-12-28T03:20:31.020Z,1020.5
2015-12-28T03:21:30.975Z,1020.4
2015-12-28T03:22:31.134Z,1020.4
2015-12-28T03:23:30.855Z,1020.4
2015-12-28T03:24:30.796Z,1020.5
2015-12-28T03:25:30.752Z,1020.5
2015-12-28T03:26:30.723Z,1020.5
2015-12-28T03:27:30.648Z,1020.5
2015-12-28T03:28:30.603Z,1020.5
2015-12-28T03:29:30.544Z,1020.5
2015-12-28T03:30:30.500Z,1020.5
2015-12-28T03:31:30.456Z,1020.6
2015-12-28T03:32:30.381Z,1020.5
2015-12-28T03:33:30.336Z,1020.5
2015-12-28T03:34:30.277Z,1020.4
2015-12-28T03:35:30.248Z,1020.6
2015-12-28T03:36:30.203Z,1020.6
2015-12-28T03:37:30.113Z,1020.6
2015-12-28T03:38:30.069Z,1020.5
2015-12-28T03:39:30.008Z,1020.7
2015-12-28T03:40:29.981Z,1020.5
2015-12-28T03:41:29.921Z,1020.5
2015-12-28T03:42:29.861Z,1020.6
2015-12-28T03:43:29.080Z,1020.6
2015-12-28T03:44:29.785Z,1020.7
2015-12-28T03:45:29.710Z,1020.7
2015-12-28T03:46:29.650Z,1020.6
2015-12-28T03:47:29.606Z,1020.6
2015-12-28T03:48:29.547Z,1020.6
2015-12-28T03:49:29.502Z,1020.5
2015-12-28T03:50:29.443Z,1020.7
2015-12-28T03:51:29.586Z,1020.6
2015-12-28T03:52:29.354Z,1020.6
2015-12-28T03:53:29.294Z,1020.6
2015-12-28T03:54:29.235Z,1020.6
2015-12-28T03:55:29.175Z,1020.6
2015-12-28T03:56:29.318Z,1020.5
2015-12-28T03:57:29.087Z,1020.6
2015-12-28T03:58:29.043Z,1020.7
2015-12-28T03:59:28.968Z,1020.7
2015-12-28T04:00:28.923Z,1020.7
2015-12-28T04:01:28.864Z,1020.5
2015-12-28T04:02:28.820Z,1020.6
2015-12-28T04:03:28.776Z,1020.7
2015-12-28T04:04:28.701Z,1020.6
2015-12-28T04:05:28.642Z,1020.7
2015-12-28T04:06:28.613Z,1020.6
2015-12-28T04:07:28.553Z,1020.6
2015-12-28T04:08:28.525Z,1020.7
2015-12-28T04:09:28.636Z,1020.7
2015-12-28T04:10:28.389Z,1020.7
2015-12-28T04:11:28.345Z,1020.6
2015-12-28T04:12:28.300Z,1020.6
2015-12-28T04:13:28.258Z,1020.6
2015-12-28T04:14:28.181Z,1020.6
2015-12-28T04:15:28.138Z,1020.5
2015-12-28T04:16:28.094Z,1020.6
2015-12-28T04:17:27.502Z,1020.5
2015-12-28T04:18:27.208Z,1020.7
2015-12-28T04:19:27.930Z,1020.6
2015-12-28T04:20:27.869Z,1020.6
2015-12-28T04:21:27.826Z,1020.6
2015-12-28T04:22:27.782Z,1020.6
2015-12-28T04:23:27.956Z,1020.7
2015-12-28T04:24:27.897Z,1020.6
2015-12-28T04:25:27.852Z,1020.6
2015-12-28T04:26:27.558Z,1020.6
2015-12-28T04:27:27.514Z,1020.7
2015-12-28T04:28:27.467Z,1020.7
2015-12-28T04:29:27.392Z,1020.7
2015-12-28T04:30:26.582Z,1020.7
2015-12-28T04:31:27.304Z,1020.6
2015-12-28T04:32:27.244Z,1020.6
2015-12-28T04:33:27.200Z,1020.6
2015-12-28T04:34:27.202Z,1020.7
2015-12-28T04:35:26.346Z,1020.7
2015-12-28T04:36:27.051Z,1020.7
2015-12-28T04:37:27.179Z,1020.8
2015-12-28T04:38:27.166Z,1020.7
2015-12-28T04:39:26.888Z,1020.8
2015-12-28T04:40:26.829Z,1020.7
2015-12-28T04:41:26.799Z,1020.6
2015-12-28T04:42:26.725Z,1020.7
2015-12-28T04:43:26.680Z,1020.7
2015-12-28T04:44:26.824Z,1020.7
2015-12-28T04:45:26.577Z,1020.7
2015-12-28T04:46:26.533Z,1020.8
2015-12-28T04:47:26.473Z,1020.8
2015-12-28T04:48:26.429Z,1020.8
2015-12-28T04:49:26.369Z,1020.8
2015-12-28T04:50:26.324Z,1020.9
2015-12-28T04:51:26.280Z,1020.7
2015-12-28T04:52:26.205Z,1020.8
2015-12-28T04:53:26.161Z,1020.7
2015-12-28T04:54:26.117Z,1020.8
2015-12-28T04:55:26.073Z,1020.8
2015-12-28T04:56:25.999Z,1020.8
2015-12-28T04:57:25.954Z,1020.9
2015-12-28T04:58:26.144Z,1020.8
2015-12-28T04:59:25.865Z,1020.7
2015-12-28T05:00:25.821Z,1020.8
2015-12-28T05:01:25.980Z,1020.8
2015-12-28T05:02:25.686Z,1020.8
2015-12-28T05:03:25.642Z,1020.7
2015-12-28T05:04:25.598Z,1020.7
2015-12-28T05:05:25.554Z,1020.7
2015-12-28T05:06:25.493Z,1020.7
2015-12-28T05:07:25.653Z,1020.7
2015-12-28T05:08:25.374Z,1020.7
2015-12-28T05:09:25.346Z,1020.7
2015-12-28T05:10:25.284Z,1020.8
2015-12-28T05:11:25.239Z,1020.8
2015-12-28T05:12:25.382Z,1020.8
2015-12-28T05:13:25.120Z,1020.8
2015-12-28T05:14:25.091Z,1020.7
2015-12-28T05:15:25.015Z,1020.7
2015-12-28T05:16:24.956Z,1020.8
2015-12-28T05:17:24.896Z,1020.8
2015-12-28T05:18:24.695Z,1020.8
2015-12-28T05:19:24.808Z,1020.9
2015-12-28T05:20:24.747Z,1020.7
2015-12-28T05:21:24.688Z,1020.7
2015-12-28T05:22:24.644Z,1020.6
2015-12-28T05:23:24.584Z,1020.7
2015-12-28T05:24:24.571Z,1020.6
2015-12-28T05:25:24.495Z,1020.7
2015-12-28T05:26:24.436Z,1020.7
2015-12-28T05:27:24.580Z,1020.7
2015-12-28T05:28:24.347Z,1020.7
2015-12-28T05:29:24.288Z,1020.8
2015-12-28T05:30:24.072Z,1020.7
2015-12-28T05:31:24.169Z,1020.7
2015-12-28T05:32:24.358Z,1020.8
2015-12-28T05:33:24.080Z,1020.8
2015-12-28T05:34:24.020Z,1020.9
2015-12-28T05:35:24.195Z,1020.7
2015-12-28T05:36:23.901Z,1020.8
2015-12-28T05:37:23.872Z,1020.8
2015-12-28T05:38:23.813Z,1020.8
2015-12-28T05:39:23.769Z,1020.8
2015-12-28T05:40:23.694Z,1020.7
2015-12-28T05:41:23.650Z,1020.9
2015-12-28T05:42:23.605Z,1020.9
2015-12-28T05:43:23.545Z,1020.7
2015-12-28T05:44:23.486Z,1020.8
2015-12-28T05:45:23.441Z,1020.8
2015-12-28T05:46:22.633Z,1020.7
2015-12-28T05:47:23.338Z,1020.8
2015-12-28T05:48:23.294Z,1020.8
2015-12-28T05:49:23.234Z,1020.8
2015-12-28T05:50:23.174Z,1020.8
2015-12-28T05:51:23.364Z,1020.7
2015-12-28T05:52:23.070Z,1020.8
2015-12-28T05:53:23.027Z,1020.8
2015-12-28T05:54:22.983Z,1020.8
2015-12-28T05:55:22.937Z,1020.8
2015-12-28T05:56:22.847Z,1020.8
2015-12-28T05:57:22.818Z,1020.8
2015-12-28T05:58:22.771Z,1020.8
2015-12-28T05:59:22.727Z,1020.9
2015-12-28T06:00:22.652Z,1020.8
2015-12-28T06:01:22.842Z,1020.8
2015-12-28T06:02:22.548Z,1020.8
2015-12-28T06:03:22.707Z,1020.8
2015-12-28T06:04:22.444Z,1020.9
2015-12-28T06:05:22.385Z,1020.8
2015-12-28T06:06:22.340Z,1020.7
2015-12-28T06:07:22.280Z,1020.8
2015-12-28T06:08:22.236Z,1020.8
2015-12-28T06:09:22.192Z,1020.8
2015-12-28T06:10:22.116Z,1020.8
2015-12-28T06:11:22.088Z,1020.8
2015-12-28T06:12:22.044Z,1020.7
2015-12-28T06:13:21.985Z,1020.8
2015-12-28T06:14:22.113Z,1020.8
2015-12-28T06:15:21.865Z,1020.8
2015-12-28T06:16:21.805Z,1020.8
2015-12-28T06:17:21.761Z,1020.9
2015-12-28T06:18:21.718Z,1020.9
2015-12-28T06:19:21.845Z,1020.9
2015-12-28T06:20:21.598Z,1020.9
2015-12-28T06:21:21.538Z,1020.8
2015-12-28T06:22:21.494Z,1020.8
2015-12-28T06:23:21.465Z,1020.8
2015-12-28T06:24:21.390Z,1020.9
2015-12-28T06:25:21.564Z,1020.9
2015-12-28T06:26:21.285Z,1021
2015-12-28T06:27:21.243Z,1020.9
2015-12-28T06:28:21.182Z,1020.8
2015-12-28T06:29:21.123Z,1020.9
2015-12-28T06:30:21.078Z,1020.9
2015-12-28T06:31:21.034Z,1021
2015-12-28T06:32:20.990Z,1021
2015-12-28T06:33:20.930Z,1021
2015-12-28T06:34:20.870Z,1020.9
2015-12-28T06:35:21.264Z,1020.9
2015-12-28T06:36:20.767Z,1021
2015-12-28T06:37:20.723Z,1021
2015-12-28T06:38:20.662Z,1020.9
2015-12-28T06:39:20.618Z,1021
2015-12-28T06:40:20.559Z,1021
2015-12-28T06:41:20.514Z,1020.9
2015-12-28T06:42:20.486Z,1020.9
2015-12-28T06:43:20.644Z,1021
2015-12-28T06:44:20.367Z,1020.8
2015-12-28T06:45:20.306Z,1020.9
2015-12-28T06:46:20.262Z,1021
2015-12-28T06:47:20.215Z,1020.8
2015-12-28T06:48:20.390Z,1021
2015-12-28T06:49:20.299Z,1020.8
2015-12-28T06:50:20.052Z,1020.9
2015-12-28T06:51:20.008Z,1020.9
2015-12-28T06:52:19.964Z,1020.9
2015-12-28T06:53:20.123Z,1020.9
2015-12-28T06:54:20.047Z,1021
2015-12-28T06:55:19.784Z,1020.9
2015-12-28T06:56:19.959Z,1021
2015-12-28T06:57:19.680Z,1020.9
2015-12-28T06:58:19.636Z,1020.9
2015-12-28T06:59:19.577Z,1021
2015-12-28T07:00:19.547Z,1020.9
2015-12-28T07:01:19.489Z,1020.9
2015-12-28T07:02:19.428Z,1021
2015-12-28T07:03:19.431Z,1020.9
2015-12-28T07:04:19.567Z,1020.9
2015-12-28T07:05:19.117Z,1020.9
2015-12-28T07:06:19.280Z,1021
2015-12-28T07:07:30.702Z,1020.9
2015-12-28T07:08:19.407Z,1021
2015-12-28T07:09:19.066Z,1021
2015-12-28T07:10:19.210Z,1021
2015-12-28T07:11:18.978Z,1021
2015-12-28T07:12:18.917Z,1021.1
2015-12-28T07:13:18.936Z,1021.1
2015-12-28T07:14:18.829Z,1021.2
2015-12-28T07:15:18.786Z,1021.1
2015-12-28T07:16:18.791Z,1021.1
2015-12-28T07:17:18.654Z,1021
2015-12-28T07:18:18.626Z,1021.1
2015-12-28T07:19:18.566Z,1021.2
2015-12-28T07:20:18.553Z,1021.2
2015-12-28T07:21:18.447Z,1021.1
2015-12-28T07:22:18.387Z,1021.4
2015-12-28T07:23:18.343Z,1021.1
2015-12-28T07:24:18.455Z,1021.1
2015-12-28T07:25:18.239Z,1021.3
2015-12-28T07:26:18.194Z,1021.2
2015-12-28T07:27:18.151Z,1021.3
2015-12-28T07:28:18.340Z,1021.3
2015-12-28T07:29:18.047Z,1021.2
2015-12-28T07:30:18.018Z,1021.3
2015-12-28T07:31:18.130Z,1021.3
2015-12-28T07:32:17.880Z,1021.3
2015-12-28T07:33:17.821Z,1021.3
2015-12-28T07:34:17.760Z,1021.3
2015-12-28T07:35:17.732Z,1021.3
2015-12-28T07:36:17.751Z,1021.3
2015-12-28T07:37:17.613Z,1021.3
2015-12-28T07:38:17.569Z,1021.3
2015-12-28T07:39:17.352Z,1021.4
2015-12-28T07:40:17.464Z,1021.4
2015-12-28T07:41:17.607Z,1021.5
2015-12-28T07:42:17.360Z,1021.3
2015-12-28T07:43:17.301Z,1021.4
2015-12-28T07:44:17.273Z,1021.5
2015-12-28T07:45:17.228Z,1021.4
2015-12-28T07:46:17.153Z,1021.5
2015-12-28T07:47:17.093Z,1021.5
2015-12-28T07:48:17.049Z,1021.5
2015-12-28T07:49:16.989Z,1021.5
2015-12-28T07:50:16.945Z,1021.6
2015-12-28T07:51:16.900Z,1021.5
2015-12-28T07:52:16.841Z,1021.4
2015-12-28T07:53:16.813Z,1021.5
2015-12-28T07:54:16.737Z,1021.5
2015-12-28T07:55:16.682Z,1021.5
2015-12-28T07:56:16.669Z,1021.6
2015-12-28T07:57:16.781Z,1021.5
2015-12-28T07:58:16.534Z,1021.6
2015-12-28T07:59:16.708Z,1021.5
2015-12-28T08:00:16.430Z,1021.5
2015-12-28T08:01:16.370Z,1021.5
2015-12-28T08:02:16.327Z,1021.5
2015-12-28T08:03:16.283Z,1021.6
2015-12-28T08:04:16.238Z,1021.6
2015-12-28T08:05:16.179Z,1021.5
2015-12-28T08:06:16.118Z,1021.6
2015-12-28T08:07:16.075Z,1021.5
2015-12-28T08:08:16.014Z,1021.5
2015-12-28T08:09:15.971Z,1021.5
2015-12-28T08:10:15.911Z,1021.5
2015-12-28T08:11:15.883Z,1021.5
2015-12-28T08:12:15.854Z,1021.4
2015-12-28T08:13:15.810Z,1021.4
2015-12-28T08:14:15.703Z,1021.5
2015-12-28T08:15:15.658Z,1021.5
2015-12-28T08:16:15.599Z,1021.6
2015-12-28T08:17:15.539Z,1021.5
2015-12-28T08:18:15.511Z,1021.5
2015-12-28T08:19:15.452Z,1021.5
2015-12-28T08:20:15.407Z,1021.5
2015-12-28T08:21:15.379Z,1021.6
2015-12-28T08:22:15.288Z,1021.6
2015-12-28T08:23:15.243Z,1021.6
2015-12-28T08:24:15.199Z,1021.6
2015-12-28T08:25:15.343Z,1021.7
2015-12-28T08:26:15.079Z,1021.6
2015-12-28T08:27:15.035Z,1021.5
2015-12-28T08:28:14.976Z,1021.6
2015-12-28T08:29:14.932Z,1021.5
2015-12-28T08:30:14.887Z,1021.6
2015-12-28T08:31:15.031Z,1021.5
2015-12-28T08:32:14.781Z,1021.6
2015-12-28T08:33:14.721Z,1021.6
2015-12-28T08:34:14.676Z,1021.6
2015-12-28T08:35:14.618Z,1021.5
2015-12-28T08:36:14.573Z,1021.5
2015-12-28T08:37:14.512Z,1021.7
2015-12-28T08:38:14.468Z,1021.5
2015-12-28T08:39:14.409Z,1021.6
2015-12-28T08:40:14.365Z,1021.6
2015-12-28T08:41:14.321Z,1021.7
2015-12-28T08:42:14.479Z,1021.6
2015-12-28T08:43:14.217Z,1021.6
2015-12-28T08:44:14.157Z,1021.6
2015-12-28T08:45:14.097Z,1021.7
2015-12-28T08:46:14.054Z,1021.6
2015-12-28T08:47:14.009Z,1021.6
2015-12-28T08:48:13.934Z,1021.7
2015-12-28T08:49:13.889Z,1021.7
2015-12-28T08:50:13.830Z,1021.6
2015-12-28T08:51:13.786Z,1021.6
2015-12-28T08:52:13.742Z,1021.8
2015-12-28T08:53:13.698Z,1021.8
2015-12-28T08:54:13.872Z,1021.7
2015-12-28T08:55:13.594Z,1021.8
2015-12-28T08:56:13.549Z,1021.8
2015-12-28T08:57:13.474Z,1021.8
2015-12-28T08:58:13.633Z,1021.8
2015-12-28T08:59:13.370Z,1021.9
2015-12-28T09:00:13.326Z,1021.9
2015-12-28T09:01:13.157Z,1021.8
2015-12-28T09:02:13.113Z,1021.8
2015-12-28T09:03:13.366Z,1021.8
2015-12-28T09:04:13.119Z,1021.8
2015-12-28T09:05:13.058Z,1021.9
2015-12-28T09:06:13.014Z,1021.9
2015-12-28T09:07:12.955Z,1021.9
2015-12-28T09:08:12.925Z,1021.8
2015-12-28T09:09:12.866Z,1021.9
2015-12-28T09:10:12.806Z,1021.8
2015-12-28T09:11:12.763Z,1021.7
2015-12-28T09:12:12.719Z,1021.8
2015-12-28T09:13:12.643Z,1021.9
2015-12-28T09:14:12.614Z,1021.8
2015-12-28T09:15:12.539Z,1021.8
2015-12-28T09:16:12.495Z,1021.8
2015-12-28T09:17:12.530Z,1021.8
2015-12-28T09:18:12.391Z,1021.8
2015-12-28T09:19:12.347Z,1021.7
2015-12-28T09:20:12.287Z,1021.8
2015-12-28T09:21:12.227Z,1021.8
2015-12-28T09:22:12.183Z,1021.7
2015-12-28T09:23:12.123Z,1021.8
2015-12-28T09:24:12.079Z,1021.8
2015-12-28T09:25:12.035Z,1021.8
2015-12-28T09:26:11.975Z,1021.9
2015-12-28T09:27:11.931Z,1021.8
2015-12-28T09:28:11.871Z,1021.7
2015-12-28T09:29:11.827Z,1021.8
2015-12-28T09:30:11.765Z,1021.8
2015-12-28T09:31:11.721Z,1021.8
2015-12-28T09:32:11.660Z,1021.8
2015-12-28T09:33:11.616Z,1021.9
2015-12-28T09:34:11.573Z,1021.7
2015-12-28T09:35:11.512Z,1021.8
2015-12-28T09:36:11.484Z,1021.9
2015-12-28T09:37:11.424Z,1021.8
2015-12-28T09:38:11.365Z,1021.7
2015-12-28T09:39:11.507Z,1021.8
2015-12-28T09:40:11.260Z,1021.8
2015-12-28T09:41:11.217Z,1021.8
2015-12-28T09:42:11.140Z,1021.8
2015-12-28T09:43:11.097Z,1021.9
2015-12-28T09:44:11.037Z,1021.8
2015-12-28T09:45:10.993Z,1021.8
2015-12-28T09:46:10.934Z,1021.9
2015-12-28T09:47:10.904Z,1021.8
2015-12-28T09:48:10.861Z,1021.7
2015-12-28T09:49:10.780Z,1021.7
2015-12-28T09:50:10.735Z,1021.8
2015-12-28T09:51:10.691Z,1021.9
2015-12-28T09:52:10.631Z,1021.9
2015-12-28T09:53:10.603Z,1021.7
2015-12-28T09:54:10.528Z,1021.8
2015-12-28T09:55:10.500Z,1021.9
2015-12-28T09:56:10.440Z,1021.9
